sensor_id;sensor_type;location;lat;lon;timestamp;pressure;altitude;pressure_sealevel;temperature;humidity
4449;BME280;2237;51.870;6.160;2023-02-13T00:01:51;103624.56;;;9.47;100.00
4449;BME280;2237;51.870;6.160;2023-02-13T00:04:18;103617.34;;;9.37;100.00
4449;BME280;2237;51.870;6.160;2023-02-13T00:06:44;103615.97;;;9.18;100.00
4449;BME280;2237;51.870;6.160;2023-02-13T00:09:13;103616.88;;;9.20;100.00
4449;BME280;2237;51.870;6.160;2023-02-13T00:11:39;103613.53;;;9.24;100.00
4449;BME280;2237;51.870;6.160;2023-02-13T00:14:06;103610.81;;;9.20;100.00
4449;BME280;2237;51.870;6.160;2023-02-13T00:16:32;103616.22;;;9.27;100.00
4449;BME280;2237;51.870;6.160;2023-02-13T00:18:59;103614.25;;;9.19;100.00
4449;BME280;2237;51.870;6.160;2023-02-13T00:21:25;103611.97;;;9.31;100.00
4449;BME280;2237;51.870;6.160;2023-02-13T00:23:52;103609.50;;;9.35;100.00
4449;BME280;2237;51.870;6.160;2023-02-13T00:26:18;103612.00;;;9.32;100.00
4449;BME280;2237;51.870;6.160;2023-02-13T00:28:44;103611.97;;;9.31;100.00
4449;BME280;2237;51.870;6.160;2023-02-13T00:31:14;103612.00;;;9.32;100.00
4449;BME280;2237;51.870;6.160;2023-02-13T00:33:41;103603.31;;;9.32;100.00
4449;BME280;2237;51.870;6.160;2023-02-13T00:36:16;103601.69;;;9.35;100.00
4449;BME280;2237;51.870;6.160;2023-02-13T00:38:43;103608.84;;;9.42;100.00
4449;BME280;2237;51.870;6.160;2023-02-13T00:41:10;103609.00;;;9.48;100.00
4449;BME280;2237;51.870;6.160;2023-02-13T00:43:37;103610.81;;;9.52;100.00
4449;BME280;2237;51.870;6.160;2023-02-13T00:46:04;103609.00;;;9.48;100.00
4449;BME280;2237;51.870;6.160;2023-02-13T00:48:32;103611.63;;;9.50;100.00
4449;BME280;2237;51.870;6.160;2023-02-13T00:50:59;103614.28;;;9.51;100.00
4449;BME280;2237;51.870;6.160;2023-02-13T00:53:26;103611.00;;;9.58;100.00
4449;BME280;2237;51.870;6.160;2023-02-13T00:55:53;103600.66;;;9.61;100.00
4449;BME280;2237;51.870;6.160;2023-02-13T00:58:20;103604.81;;;9.55;100.00
4449;BME280;2237;51.870;6.160;2023-02-13T01:00:46;103612.59;;;9.53;100.00
4449;BME280;2237;51.870;6.160;2023-02-13T01:03:13;103604.03;;;9.57;100.00
4449;BME280;2237;51.870;6.160;2023-02-13T01:05:40;103607.00;;;9.71;100.00
4449;BME280;2237;51.870;6.160;2023-02-13T01:08:07;103608.97;;;9.81;100.00
4449;BME280;2237;51.870;6.160;2023-02-13T01:10:33;103598.63;;;9.83;100.00
4449;BME280;2237;51.870;6.160;2023-02-13T01:13:00;103604.56;;;9.77;100.00
4449;BME280;2237;51.870;6.160;2023-02-13T01:15:26;103605.22;;;9.70;100.00
4449;BME280;2237;51.870;6.160;2023-02-13T01:17:53;103599.22;;;9.73;100.00
4449;BME280;2237;51.870;6.160;2023-02-13T01:20:23;103608.69;;;9.69;100.00
4449;BME280;2237;51.870;6.160;2023-02-13T01:22:50;103606.19;;;9.74;100.00
4449;BME280;2237;51.870;6.160;2023-02-13T01:25:16;103610.56;;;9.75;100.00
4449;BME280;2237;51.870;6.160;2023-02-13T01:27:43;103609.47;;;9.66;100.00
4449;BME280;2237;51.870;6.160;2023-02-13T01:30:11;103602.28;;;9.56;100.00
4449;BME280;2237;51.870;6.160;2023-02-13T01:32:40;103595.28;;;9.54;100.00
4449;BME280;2237;51.870;6.160;2023-02-13T01:35:07;103600.66;;;9.61;100.00
4449;BME280;2237;51.870;6.160;2023-02-13T01:37:34;103599.94;;;9.67;100.00
4449;BME280;2237;51.870;6.160;2023-02-13T01:40:01;103600.97;;;9.72;100.00
4449;BME280;2237;51.870;6.160;2023-02-13T01:42:30;103595.78;;;9.74;100.00
4449;BME280;2237;51.870;6.160;2023-02-13T01:44:59;103596.69;;;9.76;100.00
4449;BME280;2237;51.870;6.160;2023-02-13T01:47:32;103593.19;;;9.75;100.00
4449;BME280;2237;51.870;6.160;2023-02-13T01:50:16;103587.06;;;9.72;100.00
4449;BME280;2237;51.870;6.160;2023-02-13T01:52:48;103592.34;;;9.75;100.00
4449;BME280;2237;51.870;6.160;2023-02-13T01:55:17;103587.22;;;9.78;100.00
4449;BME280;2237;51.870;6.160;2023-02-13T01:57:49;103586.34;;;9.77;100.00
4449;BME280;2237;51.870;6.160;2023-02-13T02:00:17;103587.28;;;9.81;100.00
4449;BME280;2237;51.870;6.160;2023-02-13T02:02:51;103582.16;;;9.84;100.00
4449;BME280;2237;51.870;6.160;2023-02-13T02:05:21;103584.69;;;9.81;100.00
4449;BME280;2237;51.870;6.160;2023-02-13T02:07:50;103597.81;;;9.87;100.00
4449;BME280;2237;51.870;6.160;2023-02-13T02:10:18;103584.13;;;9.94;100.00
4449;BME280;2237;51.870;6.160;2023-02-13T02:12:57;103582.50;;;9.99;100.00
4449;BME280;2237;51.870;6.160;2023-02-13T02:15:27;103583.47;;;10.01;100.00
4449;BME280;2237;51.870;6.160;2023-02-13T02:17:54;103591.28;;;10.02;100.00
4449;BME280;2237;51.870;6.160;2023-02-13T02:20:29;103586.06;;;10.01;100.00
4449;BME280;2237;51.870;6.160;2023-02-13T02:25:38;103587.63;;;9.94;100.00
4449;BME280;2237;51.870;6.160;2023-02-13T02:30:59;103586.06;;;10.01;100.00
4449;BME280;2237;51.870;6.160;2023-02-13T02:33:40;103581.69;;;10.00;100.00
4449;BME280;2237;51.870;6.160;2023-02-13T02:38:49;103579.84;;;9.96;100.00
4449;BME280;2237;51.870;6.160;2023-02-13T02:41:31;103582.56;;;10.00;100.00
4449;BME280;2237;51.870;6.160;2023-02-13T02:50:11;103575.59;;;9.99;100.00
4449;BME280;2237;51.870;6.160;2023-02-13T02:53:07;103580.06;;;10.05;100.00
4449;BME280;2237;51.870;6.160;2023-02-13T02:55:47;103580.78;;;9.98;100.00
4449;BME280;2237;51.870;6.160;2023-02-13T02:58:23;103572.81;;;9.92;100.00
4449;BME280;2237;51.870;6.160;2023-02-13T03:01:13;103577.22;;;9.94;100.00
4449;BME280;2237;51.870;6.160;2023-02-13T03:03:59;103579.97;;;10.00;100.00
4449;BME280;2237;51.870;6.160;2023-02-13T03:06:48;103577.31;;;9.99;100.00
4449;BME280;2237;51.870;6.160;2023-02-13T03:09:24;103579.81;;;9.94;100.00
4449;BME280;2237;51.870;6.160;2023-02-13T03:12:11;103579.00;;;9.97;100.00
4449;BME280;2237;51.870;6.160;2023-02-13T03:14:57;103578.34;;;10.05;100.00
4449;BME280;2237;51.870;6.160;2023-02-13T03:17:23;103583.66;;;10.10;100.00
4449;BME280;2237;51.870;6.160;2023-02-13T03:23:22;103573.13;;;10.05;100.00
4449;BME280;2237;51.870;6.160;2023-02-13T03:26:14;103567.16;;;10.09;100.00
4449;BME280;2237;51.870;6.160;2023-02-13T03:28:51;103579.09;;;10.00;100.00
4449;BME280;2237;51.870;6.160;2023-02-13T03:31:49;103579.16;;;10.03;100.00
4449;BME280;2237;51.870;6.160;2023-02-13T03:34:22;103585.13;;;9.99;100.00
4449;BME280;2237;51.870;6.160;2023-02-13T03:36:58;103575.66;;;10.01;100.00
4449;BME280;2237;51.870;6.160;2023-02-13T03:39:57;103580.13;;;10.08;100.00
4449;BME280;2237;51.870;6.160;2023-02-13T03:42:32;103569.78;;;10.09;100.00
4449;BME280;2237;51.870;6.160;2023-02-13T03:45:08;103573.22;;;10.10;100.00
4449;BME280;2237;51.870;6.160;2023-02-13T03:48:28;103577.84;;;10.20;100.00
4449;BME280;2237;51.870;6.160;2023-02-13T03:51:26;103578.81;;;10.24;100.00
4449;BME280;2237;51.870;6.160;2023-02-13T03:53:56;103573.59;;;10.24;100.00
4449;BME280;2237;51.870;6.160;2023-02-13T03:56:25;103583.06;;;10.20;100.00
4449;BME280;2237;51.870;6.160;2023-02-13T03:59:24;103573.56;;;10.22;100.00
4449;BME280;2237;51.870;6.160;2023-02-13T04:02:13;103574.56;;;10.27;100.00
4449;BME280;2237;51.870;6.160;2023-02-13T04:04:46;103571.88;;;10.24;100.00
4449;BME280;2237;51.870;6.160;2023-02-13T04:07:17;103574.50;;;10.24;100.00
4449;BME280;2237;51.870;6.160;2023-02-13T04:10:00;103572.78;;;10.26;100.00
4449;BME280;2237;51.870;6.160;2023-02-13T04:18:01;103583.81;;;10.16;100.00
4449;BME280;2237;51.870;6.160;2023-02-13T04:20:31;103586.47;;;10.17;100.00
4449;BME280;2237;51.870;6.160;2023-02-13T04:23:03;103588.28;;;10.20;100.00
4449;BME280;2237;51.870;6.160;2023-02-13T04:25:30;103575.84;;;10.10;100.00
4449;BME280;2237;51.870;6.160;2023-02-13T04:27:56;103582.81;;;10.11;100.00
4449;BME280;2237;51.870;6.160;2023-02-13T04:30:22;103585.25;;;10.03;100.00
4449;BME280;2237;51.870;6.160;2023-02-13T04:32:49;103584.50;;;10.09;100.00
4449;BME280;2237;51.870;6.160;2023-02-13T04:35:17;103574.09;;;10.09;100.00
4449;BME280;2237;51.870;6.160;2023-02-13T04:37:43;103589.91;;;10.15;100.00
4449;BME280;2237;51.870;6.160;2023-02-13T04:40:10;103584.84;;;10.21;100.00
4449;BME280;2237;51.870;6.160;2023-02-13T04:42:36;103579.66;;;10.23;100.00
4449;BME280;2237;51.870;6.160;2023-02-13T04:45:03;103588.28;;;10.21;100.00
4449;BME280;2237;51.870;6.160;2023-02-13T04:47:29;103583.03;;;10.18;100.00
4449;BME280;2237;51.870;6.160;2023-02-13T04:49:55;103585.59;;;10.17;100.00
4449;BME280;2237;51.870;6.160;2023-02-13T04:52:22;103585.59;;;10.17;100.00
4449;BME280;2237;51.870;6.160;2023-02-13T04:54:48;103585.66;;;10.18;100.00
4449;BME280;2237;51.870;6.160;2023-02-13T04:57:15;103581.22;;;10.16;100.00
4449;BME280;2237;51.870;6.160;2023-02-13T04:59:41;103585.66;;;10.18;100.00
4449;BME280;2237;51.870;6.160;2023-02-13T05:02:08;103580.44;;;10.18;100.00
4449;BME280;2237;51.870;6.160;2023-02-13T05:04:34;103574.41;;;10.21;100.00
4449;BME280;2237;51.870;6.160;2023-02-13T05:07:00;103576.09;;;10.19;100.00
4449;BME280;2237;51.870;6.160;2023-02-13T05:09:26;103570.88;;;10.19;100.00
4449;BME280;2237;51.870;6.160;2023-02-13T05:11:53;103564.16;;;10.27;100.00
4449;BME280;2237;51.870;6.160;2023-02-13T05:14:20;103566.69;;;10.26;100.00
4449;BME280;2237;51.870;6.160;2023-02-13T05:16:47;103565.88;;;10.28;100.00
4449;BME280;2237;51.870;6.160;2023-02-13T05:19:15;103565.88;;;10.28;100.00
4449;BME280;2237;51.870;6.160;2023-02-13T05:21:42;103557.22;;;10.29;100.00
4449;BME280;2237;51.870;6.160;2023-02-13T05:24:27;103547.84;;;10.36;100.00
4449;BME280;2237;51.870;6.160;2023-02-13T05:26:53;103562.72;;;10.41;100.00
4449;BME280;2237;51.870;6.160;2023-02-13T05:29:20;103557.59;;;10.44;100.00
4449;BME280;2237;51.870;6.160;2023-02-13T05:31:53;103558.41;;;10.42;100.00
4449;BME280;2237;51.870;6.160;2023-02-13T05:34:21;103555.78;;;10.42;100.00
4449;BME280;2237;51.870;6.160;2023-02-13T05:36:48;103555.59;;;10.34;100.00
4449;BME280;2237;51.870;6.160;2023-02-13T05:39:15;103557.31;;;10.32;100.00
4449;BME280;2237;51.870;6.160;2023-02-13T05:41:42;103561.50;;;10.26;100.00
4449;BME280;2237;51.870;6.160;2023-02-13T05:44:10;103557.13;;;10.25;100.00
4449;BME280;2237;51.870;6.160;2023-02-13T05:46:38;103554.50;;;10.25;100.00
4449;BME280;2237;51.870;6.160;2023-02-13T05:49:05;103555.41;;;10.25;100.00
4449;BME280;2237;51.870;6.160;2023-02-13T05:51:32;103556.22;;;10.23;100.00
4449;BME280;2237;51.870;6.160;2023-02-13T05:53:58;103556.06;;;10.16;100.00
4449;BME280;2237;51.870;6.160;2023-02-13T05:56:25;103556.94;;;10.17;100.00
4449;BME280;2237;51.870;6.160;2023-02-13T05:58:52;103560.16;;;10.07;100.00
4449;BME280;2237;51.870;6.160;2023-02-13T06:01:19;103562.78;;;10.07;100.00
4449;BME280;2237;51.870;6.160;2023-02-13T06:03:46;103557.56;;;10.07;100.00
4449;BME280;2237;51.870;6.160;2023-02-13T06:06:12;103556.63;;;10.05;100.00
4449;BME280;2237;51.870;6.160;2023-02-13T06:08:38;103559.34;;;10.09;100.00
4449;BME280;2237;51.870;6.160;2023-02-13T06:11:05;103555.78;;;10.06;100.00
4449;BME280;2237;51.870;6.160;2023-02-13T06:13:31;103554.97;;;10.07;100.00
4449;BME280;2237;51.870;6.160;2023-02-13T06:15:58;103552.44;;;10.11;100.00
4449;BME280;2237;51.870;6.160;2023-02-13T06:18:24;103548.72;;;10.00;100.00
4449;BME280;2237;51.870;6.160;2023-02-13T06:20:51;103561.59;;;9.94;100.00
4449;BME280;2237;51.870;6.160;2023-02-13T06:23:17;103556.41;;;9.96;100.00
4449;BME280;2237;51.870;6.160;2023-02-13T06:25:44;103557.22;;;9.93;100.00
4449;BME280;2237;51.870;6.160;2023-02-13T06:28:10;103555.56;;;9.95;100.00
4449;BME280;2237;51.870;6.160;2023-02-13T06:30:37;103566.00;;;9.98;100.00
4449;BME280;2237;51.870;6.160;2023-02-13T06:33:03;103554.69;;;9.96;100.00
4449;BME280;2237;51.870;6.160;2023-02-13T06:35:29;103560.75;;;9.95;100.00
4449;BME280;2237;51.870;6.160;2023-02-13T06:37:56;103557.97;;;9.88;100.00
4449;BME280;2237;51.870;6.160;2023-02-13T06:40:22;103562.19;;;9.84;100.00
4449;BME280;2237;51.870;6.160;2023-02-13T06:42:48;103556.25;;;9.90;100.00
4449;BME280;2237;51.870;6.160;2023-02-13T06:45:15;103564.03;;;9.88;100.00
4449;BME280;2237;51.870;6.160;2023-02-13T06:47:42;103568.44;;;9.91;100.00
4449;BME280;2237;51.870;6.160;2023-02-13T06:50:10;103569.28;;;9.90;100.00
4449;BME280;2237;51.870;6.160;2023-02-13T06:52:36;103569.25;;;9.88;100.00
4449;BME280;2237;51.870;6.160;2023-02-13T06:55:03;103569.06;;;9.81;100.00
4449;BME280;2237;51.870;6.160;2023-02-13T06:57:30;103569.06;;;9.81;100.00
4449;BME280;2237;51.870;6.160;2023-02-13T06:59:59;103576.19;;;9.88;100.00
4449;BME280;2237;51.870;6.160;2023-02-13T07:02:25;103570.22;;;9.93;100.00
4449;BME280;2237;51.870;6.160;2023-02-13T07:04:52;103573.66;;;9.91;100.00
4449;BME280;2237;51.870;6.160;2023-02-13T07:07:18;103566.75;;;9.93;100.00
4449;BME280;2237;51.870;6.160;2023-02-13T07:09:45;103569.41;;;9.94;100.00
4449;BME280;2237;51.870;6.160;2023-02-13T07:12:11;103574.47;;;9.88;100.00
4449;BME280;2237;51.870;6.160;2023-02-13T07:14:37;103582.38;;;9.93;100.00
4449;BME280;2237;51.870;6.160;2023-02-13T07:17:03;103583.41;;;9.99;100.00
4449;BME280;2237;51.870;6.160;2023-02-13T07:19:30;103588.47;;;9.93;100.00
4449;BME280;2237;51.870;6.160;2023-02-13T07:21:57;103584.78;;;9.85;100.00
4449;BME280;2237;51.870;6.160;2023-02-13T07:24:23;103586.56;;;9.86;100.00
4449;BME280;2237;51.870;6.160;2023-02-13T07:26:49;103591.94;;;9.94;100.00
4449;BME280;2237;51.870;6.160;2023-02-13T07:29:16;103592.91;;;9.97;100.00
4449;BME280;2237;51.870;6.160;2023-02-13T07:31:42;103599.84;;;9.98;100.00
4449;BME280;2237;51.870;6.160;2023-02-13T07:34:09;103588.31;;;9.87;100.00
4449;BME280;2237;51.870;6.160;2023-02-13T07:36:35;103597.88;;;9.88;100.00
4449;BME280;2237;51.870;6.160;2023-02-13T07:39:01;103600.75;;;9.99;100.00
4449;BME280;2237;51.870;6.160;2023-02-13T07:41:28;103596.41;;;9.98;100.00
4449;BME280;2237;51.870;6.160;2023-02-13T07:43:54;103600.72;;;9.97;100.00
4449;BME280;2237;51.870;6.160;2023-02-13T07:46:20;103597.25;;;9.98;100.00
4449;BME280;2237;51.870;6.160;2023-02-13T07:48:47;103599.03;;;9.99;100.00
4449;BME280;2237;51.870;6.160;2023-02-13T07:51:13;103594.63;;;9.97;100.00
4449;BME280;2237;51.870;6.160;2023-02-13T07:53:41;103596.41;;;9.98;100.00
4449;BME280;2237;51.870;6.160;2023-02-13T07:56:08;103598.91;;;9.95;100.00
4449;BME280;2237;51.870;6.160;2023-02-13T07:58:36;103601.59;;;9.98;100.00
4449;BME280;2237;51.870;6.160;2023-02-13T08:01:07;103597.78;;;9.84;100.00
4449;BME280;2237;51.870;6.160;2023-02-13T08:03:33;103607.41;;;9.88;100.00
4449;BME280;2237;51.870;6.160;2023-02-13T08:06:00;103603.66;;;9.77;100.00
4449;BME280;2237;51.870;6.160;2023-02-13T08:08:27;103606.19;;;9.74;100.00
4449;BME280;2237;51.870;6.160;2023-02-13T08:10:54;103613.16;;;9.75;100.00
4449;BME280;2237;51.870;6.160;2023-02-13T08:13:39;103604.38;;;9.71;100.00
4449;BME280;2237;51.870;6.160;2023-02-13T08:16:06;103613.19;;;9.76;100.00
4449;BME280;2237;51.870;6.160;2023-02-13T08:18:32;103611.47;;;9.77;100.00
4449;BME280;2237;51.870;6.160;2023-02-13T08:21:01;103613.31;;;9.81;100.00
4449;BME280;2237;51.870;6.160;2023-02-13T08:23:28;103611.56;;;9.81;100.00
4449;BME280;2237;51.870;6.160;2023-02-13T08:25:54;103605.63;;;9.85;100.00
4449;BME280;2237;51.870;6.160;2023-02-13T08:28:21;103608.44;;;9.94;100.00
4449;BME280;2237;51.870;6.160;2023-02-13T08:30:47;103609.41;;;9.98;100.00
4449;BME280;2237;51.870;6.160;2023-02-13T08:33:14;103611.22;;;10.00;100.00
4449;BME280;2237;51.870;6.160;2023-02-13T08:35:40;103609.44;;;9.99;100.00
4449;BME280;2237;51.870;6.160;2023-02-13T08:38:07;103607.78;;;10.03;100.00
4449;BME280;2237;51.870;6.160;2023-02-13T08:40:34;103606.97;;;10.04;100.00
4449;BME280;2237;51.870;6.160;2023-02-13T08:43:01;103613.91;;;10.05;100.00
4449;BME280;2237;51.870;6.160;2023-02-13T08:45:29;103613.19;;;10.10;100.00
4449;BME280;2237;51.870;6.160;2023-02-13T08:47:56;103614.94;;;10.11;100.00
4449;BME280;2237;51.870;6.160;2023-02-13T08:50:23;103623.34;;;10.00;100.00
4449;BME280;2237;51.870;6.160;2023-02-13T08:52:50;103619.13;;;10.05;100.00
4449;BME280;2237;51.870;6.160;2023-02-13T08:55:16;103628.63;;;10.03;100.00
4449;BME280;2237;51.870;6.160;2023-02-13T08:57:43;103621.94;;;10.12;100.00
4449;BME280;2237;51.870;6.160;2023-02-13T09:00:10;103627.25;;;10.15;100.00
4449;BME280;2237;51.870;6.160;2023-02-13T09:02:36;103631.38;;;10.09;100.00
4449;BME280;2237;51.870;6.160;2023-02-13T09:05:03;103632.91;;;10.01;100.00
4449;BME280;2237;51.870;6.160;2023-02-13T09:07:29;103621.88;;;10.11;100.00
4449;BME280;2237;51.870;6.160;2023-02-13T09:09:56;103629.34;;;10.30;100.00
4449;BME280;2237;51.870;6.160;2023-02-13T09:12:22;103627.72;;;10.37;100.00
4449;BME280;2237;51.870;6.160;2023-02-13T09:14:48;103623.53;;;10.43;100.00
4449;BME280;2237;51.870;6.160;2023-02-13T09:17:15;103616.72;;;10.48;100.00
4449;BME280;2237;51.870;6.160;2023-02-13T09:19:43;103628.09;;;10.52;100.00
4449;BME280;2237;51.870;6.160;2023-02-13T09:22:10;103625.38;;;10.47;100.00
4449;BME280;2237;51.870;6.160;2023-02-13T09:24:37;103612.53;;;10.55;100.00
4449;BME280;2237;51.870;6.160;2023-02-13T09:27:04;103612.69;;;10.62;100.00
4449;BME280;2237;51.870;6.160;2023-02-13T09:29:30;103609.22;;;10.62;100.00
4449;BME280;2237;51.870;6.160;2023-02-13T09:31:59;103613.53;;;10.61;100.00
4449;BME280;2237;51.870;6.160;2023-02-13T09:34:25;103617.94;;;10.64;100.00
4449;BME280;2237;51.870;6.160;2023-02-13T09:36:52;103617.22;;;10.71;100.00
4449;BME280;2237;51.870;6.160;2023-02-13T09:39:19;103615.56;;;10.74;100.00
4449;BME280;2237;51.870;6.160;2023-02-13T09:41:47;103624.09;;;10.67;100.00
4449;BME280;2237;51.870;6.160;2023-02-13T09:49:39;103620.56;;;10.65;100.00
4449;BME280;2237;51.870;6.160;2023-02-13T09:52:07;103629.69;;;10.86;100.00
4449;BME280;2237;51.870;6.160;2023-02-13T09:54:34;103635.78;;;10.85;100.00
4449;BME280;2237;51.870;6.160;2023-02-13T09:57:07;103627.22;;;10.92;100.00
4449;BME280;2237;51.870;6.160;2023-02-13T09:59:55;103625.78;;;11.06;100.00
4449;BME280;2237;51.870;6.160;2023-02-13T10:05:00;103618.91;;;11.09;100.00
4449;BME280;2237;51.870;6.160;2023-02-13T10:13:30;103621.75;;;11.20;100.00
4449;BME280;2237;51.870;6.160;2023-02-13T10:16:24;103616.66;;;11.29;100.00
4449;BME280;2237;51.870;6.160;2023-02-13T10:18:58;103627.22;;;11.33;100.00
4449;BME280;2237;51.870;6.160;2023-02-13T10:21:32;103620.28;;;11.34;100.00
4449;BME280;2237;51.870;6.160;2023-02-13T10:24:11;103619.56;;;11.43;100.00
4449;BME280;2237;51.870;6.160;2023-02-13T10:26:39;103621.34;;;11.45;100.00
4449;BME280;2237;51.870;6.160;2023-02-13T10:29:16;103622.13;;;11.41;100.00
4449;BME280;2237;51.870;6.160;2023-02-13T10:32:08;103618.56;;;11.36;100.00
4449;BME280;2237;51.870;6.160;2023-02-13T10:34:41;103615.28;;;11.46;100.00
4449;BME280;2237;51.870;6.160;2023-02-13T10:37:18;103609.25;;;11.49;100.00
4449;BME280;2237;51.870;6.160;2023-02-13T10:39:48;103619.81;;;11.56;100.00
4449;BME280;2237;51.870;6.160;2023-02-13T10:42:22;103621.56;;;11.57;100.00
4449;BME280;2237;51.870;6.160;2023-02-13T10:45:17;103627.63;;;11.55;100.00
4449;BME280;2237;51.870;6.160;2023-02-13T10:56:09;103603.69;;;11.77;100.00
4449;BME280;2237;51.870;6.160;2023-02-13T10:58:56;103601.97;;;11.77;100.00
4449;BME280;2237;51.870;6.160;2023-02-13T11:01:52;103606.34;;;11.80;100.00
4449;BME280;2237;51.870;6.160;2023-02-13T11:04:21;103598.47;;;11.78;100.00
4449;BME280;2237;51.870;6.160;2023-02-13T11:06:58;103584.53;;;11.76;100.00
4449;BME280;2237;51.870;6.160;2023-02-13T11:09:25;103595.91;;;11.81;100.00
4449;BME280;2237;51.870;6.160;2023-02-13T11:11:53;103588.06;;;11.80;100.00
4449;BME280;2237;51.870;6.160;2023-02-13T11:14:21;103582.16;;;11.92;100.00
4449;BME280;2237;51.870;6.160;2023-02-13T11:17:01;103583.31;;;12.09;100.00
4449;BME280;2237;51.870;6.160;2023-02-13T11:19:34;103581.63;;;12.12;100.00
4449;BME280;2237;51.870;6.160;2023-02-13T11:22:04;103576.50;;;12.20;100.00
4449;BME280;2237;51.870;6.160;2023-02-13T11:24:31;103573.84;;;12.15;100.00
4449;BME280;2237;51.870;6.160;2023-02-13T11:27:07;103576.63;;;12.27;100.00
4449;BME280;2237;51.870;6.160;2023-02-13T11:29:37;103573.16;;;12.27;100.00
4449;BME280;2237;51.870;6.160;2023-02-13T11:32:17;103568.81;;;12.27;100.00
4449;BME280;2237;51.870;6.160;2023-02-13T11:34:44;103568.75;;;12.26;100.00
4449;BME280;2237;51.870;6.160;2023-02-13T11:39:39;103558.25;;;12.21;100.00
4449;BME280;2237;51.870;6.160;2023-02-13T11:42:15;103559.28;;;12.34;100.00
4449;BME280;2237;51.870;6.160;2023-02-13T11:44:48;103561.22;;;12.47;100.00
4449;BME280;2237;51.870;6.160;2023-02-13T11:47:15;103562.97;;;12.48;100.00
4449;BME280;2237;51.870;6.160;2023-02-13T11:49:46;103560.44;;;12.53;100.00
4449;BME280;2237;51.870;6.160;2023-02-13T11:52:22;103556.34;;;12.73;100.00
4449;BME280;2237;51.870;6.160;2023-02-13T11:54:56;103551.03;;;12.67;100.00
4449;BME280;2237;51.870;6.160;2023-02-13T11:57:29;103544.06;;;12.67;100.00
4449;BME280;2237;51.870;6.160;2023-02-13T11:59:56;103544.00;;;12.61;100.00
4449;BME280;2237;51.870;6.160;2023-02-13T12:02:44;103540.72;;;12.80;100.00
4449;BME280;2237;51.870;6.160;2023-02-13T12:05:21;103537.25;;;12.81;100.00
4449;BME280;2237;51.870;6.160;2023-02-13T12:07:48;103534.91;;;13.04;100.00
4449;BME280;2237;51.870;6.160;2023-02-13T12:10:16;103528.81;;;13.07;100.00
4449;BME280;2237;51.870;6.160;2023-02-13T12:15:31;103540.53;;;13.40;100.00
4449;BME280;2237;51.870;6.160;2023-02-13T12:18:31;103531.09;;;13.59;100.00
4449;BME280;2237;51.870;6.160;2023-02-13T12:24:03;103529.16;;;13.38;100.00
4449;BME280;2237;51.870;6.160;2023-02-13T12:26:38;103539.63;;;13.37;100.00
4449;BME280;2237;51.870;6.160;2023-02-13T12:34:25;103527.78;;;13.78;100.00
4449;BME280;2237;51.870;6.160;2023-02-13T12:37:26;103528.75;;;13.92;100.00
4449;BME280;2237;51.870;6.160;2023-02-13T12:42:33;103526.25;;;14.13;100.00
4449;BME280;2237;51.870;6.160;2023-02-13T12:54:00;103500.06;;;14.15;100.00
4449;BME280;2237;51.870;6.160;2023-02-13T12:56:53;103493.97;;;14.22;100.00
4449;BME280;2237;51.870;6.160;2023-02-13T12:59:52;103499.25;;;14.28;100.00
4449;BME280;2237;51.870;6.160;2023-02-13T13:05:20;103490.63;;;14.44;100.00
4449;BME280;2237;51.870;6.160;2023-02-13T13:10:45;103485.28;;;14.28;100.00
4449;BME280;2237;51.870;6.160;2023-02-13T13:18:24;103481.88;;;14.39;100.00
4449;BME280;2237;51.870;6.160;2023-02-13T13:26:35;103475.84;;;14.64;100.00
4449;BME280;2237;51.870;6.160;2023-02-13T13:29:16;103471.50;;;14.79;100.00
4449;BME280;2237;51.870;6.160;2023-02-13T13:31:51;103477.69;;;15.12;100.00
4449;BME280;2237;51.870;6.160;2023-02-13T13:34:24;103470.53;;;17.68;90.33
4449;BME280;2237;51.870;6.160;2023-02-13T13:37:06;103462.72;;;21.90;56.98
4449;BME280;2237;51.870;6.160;2023-02-13T13:42:19;103448.84;;;29.02;35.50
4449;BME280;2237;51.870;6.160;2023-02-13T13:45:04;103439.09;;;31.88;29.99
4449;BME280;2237;51.870;6.160;2023-02-13T13:47:53;103441.28;;;34.40;25.18
4449;BME280;2237;51.870;6.160;2023-02-13T13:50:24;103435.34;;;34.89;23.42
4449;BME280;2237;51.870;6.160;2023-02-13T13:53:13;103424.69;;;36.50;22.03
4449;BME280;2237;51.870;6.160;2023-02-13T13:58:36;103408.59;;;37.62;19.62
4449;BME280;2237;51.870;6.160;2023-02-13T14:03:43;103407.41;;;38.11;18.62
4449;BME280;2237;51.870;6.160;2023-02-13T14:06:16;103408.28;;;37.65;18.33
4449;BME280;2237;51.870;6.160;2023-02-13T14:13:54;103400.53;;;38.34;17.82
4449;BME280;2237;51.870;6.160;2023-02-13T14:16:44;103400.13;;;38.99;17.01
4449;BME280;2237;51.870;6.160;2023-02-13T14:24:57;103387.94;;;38.86;17.31
4449;BME280;2237;51.870;6.160;2023-02-13T14:27:32;103389.06;;;38.30;16.84
4449;BME280;2237;51.870;6.160;2023-02-13T14:30:00;103393.75;;;38.38;17.03
4449;BME280;2237;51.870;6.160;2023-02-13T14:32:35;60058.19;;;-141.10;100.00
4449;BME280;2237;51.870;6.160;2023-02-13T14:35:13;60058.19;;;-141.10;100.00
4449;BME280;2237;51.870;6.160;2023-02-13T14:37:53;103386.28;;;37.58;17.22
4449;BME280;2237;51.870;6.160;2023-02-13T14:42:50;103383.88;;;37.55;17.20
4449;BME280;2237;51.870;6.160;2023-02-13T14:45:23;103392.03;;;37.36;17.69
4449;BME280;2237;51.870;6.160;2023-02-13T14:47:54;103384.06;;;37.44;17.54
4449;BME280;2237;51.870;6.160;2023-02-13T14:50:36;103383.94;;;37.73;17.33
4449;BME280;2237;51.870;6.160;2023-02-13T14:53:13;103389.00;;;37.85;17.35
4449;BME280;2237;51.870;6.160;2023-02-13T14:55:44;103380.47;;;37.44;17.52
4449;BME280;2237;51.870;6.160;2023-02-13T14:58:31;82001.50;;;37.99;100.00
4449;BME280;2237;51.870;6.160;2023-02-13T15:01:06;60058.19;;;-141.10;100.00
4449;BME280;2237;51.870;6.160;2023-02-13T15:06:19;60058.19;;;-141.10;100.00
4449;BME280;2237;51.870;6.160;2023-02-13T15:08:50;60058.19;;;-141.10;100.00
4449;BME280;2237;51.870;6.160;2023-02-13T15:11:49;60058.19;;;-141.10;100.00
4449;BME280;2237;51.870;6.160;2023-02-13T15:14:16;60058.19;;;-141.10;100.00
4449;BME280;2237;51.870;6.160;2023-02-13T15:16:45;60058.19;;;-141.10;100.00
4449;BME280;2237;51.870;6.160;2023-02-13T15:19:15;60058.19;;;-141.10;100.00